Chalk Butte, South Dakota
Current Conditions -  °F | °C
As of 2:58 PM on Monday 26 Jan 2015 (Local Time) from KRCA Reporting Station
Clear Clear  
Wind Chill: 66°   Ceiling: Unl
Heat Index: 66°   Visibility: 10mi
Dew Point: 30°   Wind: 10mph
Humidity: 26%   Direction: 350°N
Pressure: 30.01"   Gusts: NA
Location:  44.653°N, 102.847°W
Report Text: KRCA 262158Z AUTO 35009KT 10SM CLR 19/M01 A3001 RMK AO2 SLP157 T01891012 $
Loading
Personal Weather Stations






























Interactive Weather Map New forecast layout! Learn more

10-Day Weather Forecast

Advertisements
Track Severe Weather on mobile